• Join FlightAware (Why Join?)
  • Login
  • US Flag 
12:30AM EDT


 

Airport Tracker/Info


-or-


 

Live Flight TrackerFlight Track Log ✈ N2118S ✈ 09-Aug-2013 ✈ 5T6 - KCEZ

Flight Track Log - Related Links

Times and Time Zones

All times are in EDT time to prevent confusion due to time zone crossing. See the N2118S flight status page for this flight to view local times or setup timezone preferences in your user account.

Time Position Orientation Groundspeed Altitude Reporting Facility
EDT Latitude Longitude Course Direction KTS MPH feet Rate Location/Type
03:12PM 31.8739 -106.6825 339° North 96 110 4,400  Level Albuquerque Center
03:12PM 31.8811 -106.6633 66° East 128 147 4,600 300 Climbing Albuquerque Center
03:13PM 31.9014 -106.6653 355° North 129 148 4,800 360 Climbing Albuquerque Center
03:14PM 31.9311 -106.6744 345° North 117 135 5,200 420 Climbing Albuquerque Center
03:15PM 32.1291 -106.7722 339° North  Level FlightAware Approximate
03:15PM 31.9681 -106.6872 344° North 115 132 5,700  Level Albuquerque Center
03:16PM 32.1713 -106.7909 339° North  Level FlightAware Approximate
03:16PM 31.9992 -106.6981 344° North 115 132 6,100  Level Albuquerque Center
03:17PM 32.2134 -106.8096 339° North  Level FlightAware Approximate
03:17PM 32.0297 -106.7061 347° North 114 131 6,400  Level Albuquerque Center
03:18PM 32.0614 -106.7153 346° North 115 132 7,100 480 Climbing Albuquerque Center
03:19PM 32.0922 -106.7236 347° North 115 132 7,500 240 Climbing Albuquerque Center
03:20PM 32.1242 -106.7303 350° North 116 133 7,600 60 Climbing Albuquerque Center
03:21PM 32.1561 -106.7392 347° North 118 136 7,700 240 Climbing Albuquerque Center
03:22PM 32.1956 -106.7522 344° North 121 139 8,200 420 Climbing Albuquerque Center
03:23PM 32.2281 -106.7628 345° North 122 140 8,600 240 Climbing Albuquerque Center
03:24PM 32.2597 -106.7728 345° North 120 138 8,800 240 Climbing Albuquerque Center
03:25PM 32.2919 -106.7847 343° North 121 139 9,100 240 Climbing Albuquerque Center
03:26PM 32.3236 -106.7961 343° North 120 138 9,300 180 Climbing Albuquerque Center
03:27PM 32.3556 -106.8083 342° North 121 139 9,500 240 Climbing Albuquerque Center
03:29PM 32.3958 -106.8231 343° North 125 144 9,900 420 Climbing Albuquerque Center
03:30PM 32.4292 -106.8328 346° North 125 144 10,400 240 Climbing Albuquerque Center
03:31PM 32.4625 -106.8461 341° North 126 145 10,400  Level Albuquerque Center
03:32PM 32.4964 -106.8564 346° North 127 146 10,400 180 Level Albuquerque Center
03:33PM 32.5300 -106.8678 344° North 126 145 10,800 300 Climbing Albuquerque Center
03:34PM 32.5636 -106.8800 343° North 126 145 11,100 300 Climbing Albuquerque Center
03:35PM 32.6042 -106.8950 343° North 127 146 11,500 240 Climbing Albuquerque Center
03:36PM 32.6383 -106.9081 342° North 128 147 11,600 120 Climbing Albuquerque Center
03:37PM 32.6731 -106.9217 342° North 130 150 11,800 240 Climbing Albuquerque Center
03:38PM 32.7069 -106.9339 343° North 129 148 12,100 300 Climbing Albuquerque Center
03:39PM 32.7425 -106.9456 345° North 130 150 12,500 240 Climbing Albuquerque Center
03:40PM 32.7758 -106.9586 342° North 129 148 12,700 180 Climbing Albuquerque Center
03:41PM 32.8164 -106.9747 342° North 128 147 12,900 180 Climbing Albuquerque Center
03:42PM 32.8494 -106.9903 338° Northwest 128 147 13,100 300 Climbing Albuquerque Center
03:43PM 32.8853 -107.0047 341° North 133 153 13,600 360 Climbing Albuquerque Center
03:44PM 32.9186 -107.0172 343° North 130 150 13,900 180 Climbing Albuquerque Center
03:45PM 32.9550 -107.0319 341° North 134 154 14,000 240 Climbing Albuquerque Center
03:46PM 32.9886 -107.0600 325° Northwest 144 166 14,500 360 Climbing Albuquerque Center
03:47PM 33.0239 -107.0936 321° Northwest 139 160 14,800 240 Climbing Albuquerque Center
03:48PM 33.0533 -107.1194 324° Northwest 134 154 15,100 240 Climbing Albuquerque Center
03:49PM 33.0819 -107.1478 320° Northwest 134 154 15,300 240 Climbing Albuquerque Center
03:50PM 33.1114 -107.1744 323° Northwest 134 154 15,700 300 Climbing Albuquerque Center
03:51PM 33.1414 -107.2003 324° Northwest 133 153 16,000 120 Climbing Albuquerque Center
03:52PM 33.1736 -107.2267 326° Northwest 137 158 16,000  Level Albuquerque Center
03:53PM 33.2144 -107.2633 323° Northwest 150 173 16,000  Level Albuquerque Center
03:54PM 33.2500 -107.2956 323° Northwest 158 182 16,000  Level Albuquerque Center
03:55PM 33.2872 -107.3269 325° Northwest 162 186 16,000  Level Albuquerque Center
03:56PM 33.3228 -107.3583 324° Northwest 160 184 16,000  Level Albuquerque Center
03:57PM 33.3567 -107.3903 322° Northwest 157 181 16,100 240 Climbing Albuquerque Center
03:58PM 33.3872 -107.4175 323° Northwest 144 166 16,600 480 Climbing Albuquerque Center
03:59PM 33.4231 -107.4503 323° Northwest 137 158 17,100 360 Climbing Albuquerque Center
04:00PM 33.4514 -107.4808 318° Northwest 137 158 17,400 240 Climbing Albuquerque Center
04:02PM 33.4806 -107.5122 318° Northwest 140 161 17,700 180 Climbing Albuquerque Center
04:03PM 33.5114 -107.5428 320° Northwest 143 165 17,800 120 Climbing Albuquerque Center
04:04PM 33.5419 -107.5758 318° Northwest 146 168 18,000 60 Climbing Albuquerque Center
04:05PM 33.5683 -107.6153 309° West 149 171 18,000  Level Albuquerque Center
04:06PM 33.5969 -107.6667 304° West 153 176 18,000  Level Albuquerque Center
04:07PM 33.6175 -107.7136 298° West 157 181 18,000  Level Albuquerque Center
04:08PM 33.6339 -107.7617 292° West 157 181 18,000  Level Albuquerque Center
04:09PM 33.6533 -107.8106 296° West 159 183 18,000 -60 Level Albuquerque Center
04:10PM 33.6794 -107.8531 306° West 161 185 17,900  Descending Albuquerque Center
04:11PM 33.7017 -107.8983 301° West 158 182 18,000  Climbing Albuquerque Center
04:12PM 33.7272 -107.9525 300° West 156 180 18,000  Level Albuquerque Center
04:13PM 33.7664 -107.9772 332° Northwest 171 197 18,000 -60 Level Albuquerque Center
04:14PM 33.8108 -107.9881 349° North 165 190 17,900  Descending Albuquerque Center
04:15PM 33.8572 -107.9953 353° North 167 192 18,000  Climbing Albuquerque Center
04:16PM 33.9039 -108.0031 352° North 169 194 18,000  Level Albuquerque Center
04:17PM 33.9508 -108.0122 351° North 170 196 18,000  Level Albuquerque Center
04:18PM 34.0100 -108.0219 352° North 176 203 18,000  Level Albuquerque Center
04:19PM 34.0553 -108.0322 349° North 175 201 18,000  Level Albuquerque Center
04:20PM 34.1061 -108.0419 351° North 179 206 18,000  Level Albuquerque Center
04:21PM 34.1556 -108.0511 351° North 181 208 18,000  Level Albuquerque Center
04:22PM 34.2075 -108.0600 352° North 185 213 18,000  Level Albuquerque Center
04:23PM 34.2575 -108.0694 351° North 183 211 18,000  Level Albuquerque Center
04:24PM 34.3183 -108.0819 350° North 184 212 18,000 -60 Level Albuquerque Center
04:25PM 34.3694 -108.0928 350° North 186 214 17,900  Descending Albuquerque Center
04:26PM 34.4192 -108.1033 350° North 182 209 18,100  Climbing Albuquerque Center
04:27PM 34.4581 -108.1300 331° Northwest 175 201 18,000 -300 Descending Albuquerque Center
04:28PM 34.4919 -108.1786 310° West 185 213 17,500 -540 Descending Albuquerque Center
04:29PM 34.5342 -108.2186 322° Northwest 193 222 16,900 -660 Descending Albuquerque Center
04:30PM 34.5939 -108.2511 336° Northwest 196 226 16,200 -600 Descending Albuquerque Center
04:31PM 34.6475 -108.2553 356° North 197 227 15,700 -540 Descending Albuquerque Center
04:32PM 34.7078 -108.2692 349° North 196 226 15,200 -540 Descending Albuquerque Center
04:33PM 34.7600 -108.2792 351° North 197 227 14,600 -540 Descending Albuquerque Center
04:35PM 34.8117 -108.2833 356° North 194 223 14,100 -300 Descending Albuquerque Center
04:36PM 34.8678 -108.2928 352° North 187 215 14,100  Level Albuquerque Center
04:37PM 34.9125 -108.3011 351° North 174 200 14,100 -60 Level Albuquerque Center
04:38PM 34.9650 -108.3064 355° North 169 194 14,000  Descending Albuquerque Center
04:39PM 35.0078 -108.3161 349° North 166 191 14,100  Climbing Albuquerque Center
04:40PM 35.0592 -108.3281 349° North 166 191 14,100  Level Albuquerque Center
04:41PM 35.1025 -108.3411 346° North 167 192 14,100 -60 Level Albuquerque Center
04:42PM 35.1511 -108.3531 349° North 162 186 14,000  Descending Albuquerque Center
04:43PM 35.1925 -108.3639 348° North 160 184 14,100  Climbing Albuquerque Center
04:44PM 35.2347 -108.3717 351° North 158 182 14,100  Level Albuquerque Center
04:45PM 35.2839 -108.3844 348° North 162 186 14,100 -240 Level Albuquerque Center
04:46PM 35.3297 -108.3953 349° North 167 192 13,700 -360 Descending Albuquerque Center
04:47PM 35.3861 -108.4083 349° North 179 206 13,400 -360 Descending Albuquerque Center
04:48PM 35.4344 -108.4194 349° North 183 211 13,000 -240 Descending Albuquerque Center
04:49PM 35.4903 -108.4325 349° North 183 211 13,000 -300 Level Albuquerque Center
04:50PM 35.5394 -108.4456 348° North 186 214 12,500 -480 Descending Albuquerque Center
04:51PM 35.5972 -108.4575 350° North 187 215 12,100 -300 Descending Albuquerque Center
04:52PM 35.6453 -108.4694 349° North 186 214 12,000 -60 Descending Albuquerque Center
04:53PM 35.6889 -108.4806 348° North 177 204 12,000  Level Albuquerque Center
04:54PM 35.7361 -108.4931 348° North 163 188 12,000  Level Albuquerque Center
04:55PM 35.7781 -108.5047 347° North 160 184 12,000  Level Albuquerque Center
04:56PM 35.8303 -108.5175 349° North 166 191 12,000  Level Albuquerque Center
04:57PM 35.8731 -108.5283 348° North 166 191 12,000  Level Albuquerque Center
04:58PM 35.9214 -108.5411 348° North 162 186 12,000  Level Albuquerque Center
04:59PM 35.9631 -108.5519 348° North 160 184 12,000  Level Albuquerque Center
05:00PM 36.0122 -108.5631 350° North 161 185 12,000  Level Albuquerque Center
05:01PM 36.0564 -108.5714 351° North 164 189 12,000  Level Albuquerque Center
05:02PM 36.1075 -108.5831 350° North 167 192 12,000  Level Albuquerque Center
05:03PM 36.1475 -108.5917 350° North 160 184 12,000  Level Albuquerque Center
05:04PM 36.1942 -108.6039 348° North 155 178 12,000  Level Albuquerque Center
05:05PM 36.2383 -108.6153 348° North 163 188 12,000 -60 Level Albuquerque Center
05:06PM 36.2856 -108.6275 348° North 172 198 11,900 -60 Descending Albuquerque Center
05:07PM 36.3378 -108.6392 350° North 174 200 11,900  Level Albuquerque Center
05:08PM 36.3800 -108.6519 346° North 168 193 11,900  Level Albuquerque Center
05:10PM 36.4497 -108.6672 350° North 161 185 11,900  Level Denver Center
05:11PM 36.4919 -108.6750 352° North 159 183 11,900  Level Denver Center
05:12PM 36.5350 -108.6833 351° North 161 185 11,900 -120 Level Denver Center
05:13PM 36.5867 -108.6942 350° North 166 191 11,700 -300 Descending Denver Center
05:14PM 36.6358 -108.7081 347° North 176 203 11,400 -480 Descending Denver Center
05:15PM 36.6958 -108.7242 348° North 189 217 10,800 -600 Descending Denver Center
05:16PM 36.7444 -108.7336 351° North 189 217 10,200 -540 Descending Denver Center
05:17PM 36.7967 -108.7442 351° North 178 205 9,700 -180 Descending Denver Center
05:18PM 36.8375 -108.7494 354° North 166 191 9,900 -60 Climbing Denver Center
05:19PM 36.8864 -108.7586 351° North 159 183 9,600 -360 Descending Denver Center
05:20PM 36.9328 -108.7694 349° North 169 194 9,200 -420 Descending Denver Center